Time;durP1;ratioP1;P1;durP2;ratioP2;P2;SDS_P1;SDS_P2;PMS_P1;PMS_P2;Temp;Humidity;BMP_temperature;BMP_pressure;BME280_temperature;BME280_humidity;BME280_pressure;Samples;Min_cycle;Max_cycle;Signal;HPM_P1;HPM_P2
2023/07/08 00:02:12;;;;;;;11.40;5.70;;;19.50;48.70;;;;;;5038317;28;20623;-58
2023/07/08 00:04:38;;;;;;;9.63;5.75;;;19.40;48.90;;;;;;5035195;28;20033;-59
2023/07/08 00:07:05;;;;;;;9.38;5.50;;;19.40;48.90;;;;;;5012668;28;20033;-59
2023/07/08 00:09:31;;;;;;;10.52;5.60;;;19.30;48.80;;;;;;5038556;28;20017;-58
2023/07/08 00:11:59;;;;;;;9.35;5.88;;;19.30;48.80;;;;;;5019045;28;20343;-59
2023/07/08 00:14:25;;;;;;;9.52;6.20;;;19.30;48.90;;;;;;5034109;28;20120;-59
2023/07/08 00:16:51;;;;;;;9.90;6.15;;;19.30;49.00;;;;;;5038165;28;20393;-59
2023/07/08 00:19:19;;;;;;;9.20;6.72;;;19.20;49.10;;;;;;5035287;28;20114;-59
2023/07/08 00:21:45;;;;;;;9.88;6.10;;;19.20;49.30;;;;;;5033634;28;20026;-59
2023/07/08 00:24:12;;;;;;;12.18;5.95;;;19.20;49.50;;;;;;5037516;28;20025;-58
2023/07/08 00:26:38;;;;;;;10.75;6.20;;;19.20;49.60;;;;;;5037882;28;20076;-60
2023/07/08 00:29:09;;;;;;;9.75;5.93;;;19.10;49.70;;;;;;5038114;28;20025;-58
2023/07/08 00:31:35;;;;;;;8.70;5.65;;;19.10;50.20;;;;;;5031205;28;20017;-59
2023/07/08 00:34:03;;;;;;;9.43;5.43;;;19.10;49.80;;;;;;5041207;28;20031;-59
2023/07/08 00:36:29;;;;;;;9.65;5.43;;;19.10;49.80;;;;;;5037114;28;20080;-59
2023/07/08 00:38:56;;;;;;;7.82;5.90;;;19.10;50.00;;;;;;5040307;28;20038;-59
2023/07/08 00:41:41;;;;;;;7.97;5.43;;;19.00;50.10;;;;;;5039639;28;20220;-59
2023/07/08 00:44:10;;;;;;;8.60;5.80;;;19.00;50.70;;;;;;5040371;28;20570;-58
2023/07/08 00:46:57;;;;;;;8.90;6.15;;;19.00;50.00;;;;;;5037907;28;20103;-58
2023/07/08 00:49:22;;;;;;;7.68;5.38;;;19.00;50.90;;;;;;5036188;28;20039;-58
2023/07/08 00:51:48;;;;;;;8.70;5.60;;;18.90;50.30;;;;;;5043200;28;20041;-59
2023/07/08 00:54:18;;;;;;;9.40;5.85;;;18.90;50.30;;;;;;5039221;28;20034;-59
2023/07/08 00:56:50;;;;;;;7.97;5.88;;;18.80;50.60;;;;;;5038044;28;20029;-59
2023/07/08 00:59:25;;;;;;;10.43;5.63;;;18.80;50.40;;;;;;5039192;28;20048;-59
2023/07/08 01:01:52;;;;;;;10.77;5.47;;;18.70;50.30;;;;;;5037223;28;20230;-59
2023/07/08 01:04:28;;;;;;;10.57;5.53;;;18.70;50.60;;;;;;5018887;28;20068;-59
2023/07/08 01:06:57;;;;;;;8.88;5.53;;;18.70;50.70;;;;;;5036544;28;20053;-59
2023/07/08 01:09:30;;;;;;;8.60;5.95;;;18.70;50.60;;;;;;5040061;28;20025;-59
2023/07/08 01:11:58;;;;;;;8.27;5.20;;;18.70;50.70;;;;;;5039190;28;20044;-59
2023/07/08 01:14:31;;;;;;;8.48;5.57;;;18.60;50.70;;;;;;5038518;28;20076;-59
2023/07/08 01:16:57;;;;;;;8.80;5.55;;;18.60;51.10;;;;;;5039791;28;20051;-59
2023/07/08 01:19:32;;;;;;;11.15;5.80;;;18.60;50.80;;;;;;5036390;28;20041;-57
2023/07/08 01:22:01;;;;;;;8.13;5.50;;;18.50;50.90;;;;;;5037527;28;20040;-57
2023/07/08 01:24:29;;;;;;;9.40;5.47;;;18.50;50.90;;;;;;5038298;28;20021;-58
2023/07/08 01:26:56;;;;;;;8.65;5.80;;;18.50;51.00;;;;;;5039799;28;20436;-58
2023/07/08 01:29:22;;;;;;;7.95;5.25;;;18.40;50.90;;;;;;5036167;28;20033;-58
2023/07/08 01:31:48;;;;;;;11.23;5.43;;;18.40;50.90;;;;;;5035621;28;20033;-58
2023/07/08 01:34:18;;;;;;;7.55;5.40;;;18.40;51.20;;;;;;5041760;28;20026;-58
2023/07/08 01:36:51;;;;;;;10.80;5.85;;;18.40;51.80;;;;;;5041160;28;20026;-58
2023/07/08 01:39:19;;;;;;;7.70;5.20;;;18.40;51.90;;;;;;5020501;28;20130;-58
2023/07/08 01:41:45;;;;;;;10.10;5.82;;;18.40;51.30;;;;;;5039930;28;20456;-58
2023/07/08 01:44:22;;;;;;;7.53;5.47;;;18.30;51.30;;;;;;5039873;28;20037;-58
2023/07/08 01:46:49;;;;;;;8.55;5.32;;;18.30;52.30;;;;;;5038314;28;20034;-58
2023/07/08 01:49:15;;;;;;;7.93;5.65;;;18.30;51.50;;;;;;5032770;28;20090;-59
2023/07/08 01:51:41;;;;;;;8.85;5.35;;;18.20;51.60;;;;;;5037958;28;20479;-58
2023/07/08 01:54:06;;;;;;;8.10;5.55;;;18.20;51.60;;;;;;5035620;28;20021;-58
2023/07/08 01:56:32;;;;;;;8.48;5.80;;;18.20;51.80;;;;;;5039902;28;20104;-57
2023/07/08 01:58:58;;;;;;;8.43;5.72;;;18.10;51.90;;;;;;5027546;28;20033;-58
2023/07/08 02:01:23;;;;;;;8.68;5.68;;;18.10;52.00;;;;;;5035622;28;20025;-59
2023/07/08 02:03:49;;;;;;;8.10;5.53;;;18.10;52.00;;;;;;5040760;28;20034;-57
2023/07/08 02:06:15;;;;;;;9.02;5.70;;;18.10;52.00;;;;;;5035650;28;20026;-59
2023/07/08 02:08:40;;;;;;;8.30;5.35;;;18.10;52.00;;;;;;5039947;28;20026;-59
2023/07/08 02:11:06;;;;;;;9.07;5.55;;;18.00;51.90;;;;;;5017513;28;20026;-59
2023/07/08 02:13:31;;;;;;;9.10;5.78;;;18.00;52.00;;;;;;5034024;28;20021;-58
2023/07/08 02:15:57;;;;;;;8.32;5.93;;;18.00;51.90;;;;;;5039372;28;20036;-58
2023/07/08 02:18:24;;;;;;;8.10;5.07;;;18.00;52.10;;;;;;5039547;28;20076;-59
2023/07/08 02:20:50;;;;;;;12.23;5.38;;;17.90;52.20;;;;;;5019840;28;20034;-58
2023/07/08 02:23:16;;;;;;;10.52;6.22;;;17.90;52.40;;;;;;5042748;28;20025;-59
2023/07/08 02:25:49;;;;;;;13.60;5.63;;;17.90;52.40;;;;;;5038216;28;20049;-58
2023/07/08 02:28:15;;;;;;;8.85;6.03;;;17.90;52.40;;;;;;5037612;28;20781;-60
2023/07/08 02:30:41;;;;;;;9.75;5.93;;;17.90;52.40;;;;;;5039139;28;20030;-57
2023/07/08 02:33:06;;;;;;;9.07;5.75;;;17.90;52.30;;;;;;5021567;28;20388;-59
2023/07/08 02:35:32;;;;;;;12.25;5.68;;;17.80;52.50;;;;;;5039066;28;20152;-59
2023/07/08 02:37:58;;;;;;;7.43;4.82;;;17.80;52.60;;;;;;5038686;28;20503;-60
2023/07/08 02:40:25;;;;;;;9.45;5.80;;;17.80;52.50;;;;;;5028975;28;20024;-58
2023/07/08 02:42:50;;;;;;;8.32;5.63;;;17.70;52.60;;;;;;5040073;28;20018;-59
2023/07/08 02:45:17;;;;;;;8.85;5.35;;;17.70;52.70;;;;;;5038709;28;20022;-59
2023/07/08 02:47:43;;;;;;;8.23;5.78;;;17.70;52.70;;;;;;5038879;28;20025;-59
2023/07/08 02:50:11;;;;;;;8.68;5.32;;;17.70;52.80;;;;;;5035845;28;20044;-59
2023/07/08 02:52:36;;;;;;;9.70;5.43;;;17.60;52.80;;;;;;5035223;28;20021;-59
2023/07/08 02:55:03;;;;;;;7.20;5.05;;;17.70;52.90;;;;;;5036692;28;20025;-59
2023/07/08 02:57:28;;;;;;;7.82;4.95;;;17.60;52.80;;;;;;5036378;28;20085;-59
2023/07/08 02:59:54;;;;;;;7.88;5.47;;;17.60;52.80;;;;;;5040099;28;20060;-58
2023/07/08 03:02:21;;;;;;;8.35;5.13;;;17.60;52.90;;;;;;5038561;28;20026;-59
2023/07/08 03:04:49;;;;;;;7.97;5.22;;;17.60;53.10;;;;;;5019649;28;20036;-59
2023/07/08 03:07:16;;;;;;;8.65;4.78;;;17.60;53.20;;;;;;5035924;28;20025;-58
2023/07/08 03:09:42;;;;;;;7.07;5.10;;;17.50;53.20;;;;;;5035718;28;20045;-58
2023/07/08 03:12:10;;;;;;;9.18;5.57;;;17.50;53.10;;;;;;5038704;28;20029;-57
2023/07/08 03:14:36;;;;;;;9.55;5.00;;;17.50;53.20;;;;;;5038616;28;20036;-58
2023/07/08 03:17:02;;;;;;;8.65;4.95;;;17.50;53.20;;;;;;5039536;28;20024;-60
2023/07/08 03:19:28;;;;;;;9.32;5.20;;;17.50;53.50;;;;;;5035179;28;20069;-58
2023/07/08 03:21:54;;;;;;;7.93;4.85;;;17.50;53.60;;;;;;5034586;28;20369;-59
2023/07/08 03:24:19;;;;;;;9.85;5.32;;;17.40;53.70;;;;;;5030114;28;20029;-58
2023/07/08 03:26:45;;;;;;;7.05;4.80;;;17.50;53.90;;;;;;5039108;28;20488;-58
2023/07/08 03:29:15;;;;;;;9.35;5.50;;;17.50;53.80;;;;;;5038003;28;20060;-59
2023/07/08 03:31:41;;;;;;;9.50;5.40;;;17.50;54.20;;;;;;5031367;28;20022;-59
2023/07/08 03:34:10;;;;;;;10.30;5.22;;;17.50;54.10;;;;;;5024823;28;20026;-59
2023/07/08 03:36:48;;;;;;;7.65;5.30;;;17.50;54.30;;;;;;5040582;28;20059;-58
2023/07/08 03:39:18;;;;;;;13.13;7.60;;;17.50;54.30;;;;;;5037544;28;20044;-58
2023/07/08 03:41:44;;;;;;;14.93;7.90;;;17.50;54.00;;;;;;5035323;28;20037;-57
2023/07/08 03:44:10;;;;;;;14.25;8.88;;;17.50;53.90;;;;;;5030437;28;20033;-58
2023/07/08 03:46:36;;;;;;;10.00;6.30;;;17.50;54.00;;;;;;5037425;28;20030;-59
2023/07/08 03:49:02;;;;;;;12.15;6.18;;;17.60;54.10;;;;;;5032861;28;20029;-59
2023/07/08 03:51:31;;;;;;;8.05;5.53;;;17.60;54.30;;;;;;5033398;28;20087;-58
2023/07/08 03:53:57;;;;;;;10.73;5.60;;;17.60;54.60;;;;;;5031587;28;20022;-57
2023/07/08 03:56:23;;;;;;;10.00;5.90;;;17.60;54.60;;;;;;5038135;28;20033;-58
2023/07/08 03:58:50;;;;;;;7.70;5.10;;;17.70;54.80;;;;;;5037846;28;20035;-58
2023/07/08 04:01:20;;;;;;;7.53;5.95;;;17.70;54.90;;;;;;5040594;28;20079;-58
2023/07/08 04:03:47;;;;;;;9.25;5.95;;;17.70;54.90;;;;;;5040316;28;20029;-58
2023/07/08 04:06:14;;;;;;;8.50;5.60;;;17.80;54.80;;;;;;5041545;28;20044;-58
2023/07/08 04:08:40;;;;;;;7.28;5.18;;;17.80;54.90;;;;;;5038896;28;20052;-59
2023/07/08 04:11:06;;;;;;;9.18;5.75;;;17.80;54.80;;;;;;5037510;28;20049;-58
2023/07/08 04:13:32;;;;;;;7.57;5.47;;;17.80;54.80;;;;;;5039918;28;20106;-59
2023/07/08 04:16:04;;;;;;;10.35;5.60;;;17.90;55.10;;;;;;5039831;28;20105;-58
2023/07/08 04:18:29;;;;;;;8.13;5.25;;;18.00;55.20;;;;;;5039241;28;20034;-57
2023/07/08 04:20:55;;;;;;;8.18;5.25;;;18.00;54.90;;;;;;5034749;28;20551;-59
2023/07/08 04:23:22;;;;;;;6.43;4.70;;;18.10;54.70;;;;;;5037624;28;20102;-58
2023/07/08 04:25:50;;;;;;;9.25;5.85;;;18.20;54.40;;;;;;5040441;28;20065;-58
2023/07/08 04:28:16;;;;;;;8.15;4.82;;;18.20;54.40;;;;;;5041381;28;20037;-58
2023/07/08 04:30:43;;;;;;;9.25;5.18;;;18.30;54.40;;;;;;5042665;28;20029;-59
2023/07/08 04:33:13;;;;;;;9.13;5.50;;;18.40;54.60;;;;;;5022261;28;20085;-57
2023/07/08 04:35:41;;;;;;;11.98;5.28;;;18.50;54.60;;;;;;5038911;28;20057;-58
2023/07/08 04:38:19;;;;;;;8.05;5.35;;;18.50;54.40;;;;;;5044125;28;20037;-58
2023/07/08 04:40:44;;;;;;;9.20;5.25;;;18.60;54.40;;;;;;5041401;28;20014;-58
2023/07/08 04:43:10;;;;;;;9.05;5.80;;;18.80;54.20;;;;;;5041768;28;20085;-59
2023/07/08 04:45:37;;;;;;;10.20;5.50;;;18.80;54.00;;;;;;5041036;28;20025;-58
2023/07/08 04:48:12;;;;;;;10.32;5.57;;;18.80;53.90;;;;;;5036123;28;20046;-58
2023/07/08 04:50:41;;;;;;;15.98;5.78;;;18.90;54.00;;;;;;5030230;28;20044;-59
2023/07/08 04:53:08;;;;;;;11.65;5.97;;;18.90;53.90;;;;;;5036379;28;20029;-57
2023/07/08 04:55:36;;;;;;;9.65;5.60;;;19.00;53.90;;;;;;5041962;28;20025;-58
2023/07/08 04:58:02;;;;;;;8.02;5.50;;;19.00;53.80;;;;;;5041896;28;20068;-58
2023/07/08 05:00:27;;;;;;;8.63;5.65;;;19.00;53.50;;;;;;5037538;28;20029;-58
2023/07/08 05:02:54;;;;;;;10.98;5.35;;;18.90;53.50;;;;;;5040653;28;20475;-59
2023/07/08 05:05:20;;;;;;;7.97;5.50;;;18.90;53.40;;;;;;5042204;28;20009;-58
2023/07/08 05:07:46;;;;;;;9.32;5.13;;;18.90;53.50;;;;;;5040008;28;20056;-59
2023/07/08 05:10:11;;;;;;;9.25;5.25;;;18.90;53.50;;;;;;5039377;28;20080;-59
2023/07/08 05:12:37;;;;;;;12.77;5.43;;;18.90;53.60;;;;;;5042106;28;20032;-59
2023/07/08 05:15:03;;;;;;;9.07;5.75;;;18.90;53.60;;;;;;5038081;28;20029;-57
2023/07/08 05:17:29;;;;;;;10.68;5.95;;;18.90;53.80;;;;;;5040624;28;20021;-58
2023/07/08 05:19:57;;;;;;;17.65;5.97;;;18.90;53.80;;;;;;5039535;28;20060;-58
2023/07/08 05:22:25;;;;;;;8.50;5.75;;;19.00;53.90;;;;;;5039982;28;20041;-58
2023/07/08 05:24:52;;;;;;;8.25;5.57;;;19.00;54.10;;;;;;5040686;28;20033;-58
2023/07/08 05:27:19;;;;;;;8.55;5.75;;;19.00;54.30;;;;;;5041151;28;20030;-58
2023/07/08 05:29:46;;;;;;;9.82;6.25;;;19.10;54.30;;;;;;5040505;28;20025;-57
2023/07/08 05:32:12;;;;;;;7.45;5.05;;;19.20;54.30;;;;;;5041561;28;20107;-57
2023/07/08 05:34:38;;;;;;;8.20;5.35;;;19.20;54.20;;;;;;5032189;28;20048;-58
2023/07/08 05:37:04;;;;;;;8.63;5.28;;;19.30;54.40;;;;;;5040545;28;20029;-59
2023/07/08 05:39:30;;;;;;;8.35;5.30;;;19.40;54.20;;;;;;5039937;28;20034;-60
2023/07/08 05:41:56;;;;;;;11.00;5.00;;;19.50;54.20;;;;;;5036690;28;20029;-59
2023/07/08 05:44:22;;;;;;;8.00;4.93;;;19.60;54.30;;;;;;5038087;28;20040;-58
2023/07/08 05:46:48;;;;;;;9.23;5.47;;;19.70;54.40;;;;;;5039655;28;20099;-58
2023/07/08 05:49:14;;;;;;;15.85;5.50;;;19.80;54.40;;;;;;5037988;28;20045;-58
2023/07/08 05:51:40;;;;;;;11.55;5.35;;;19.90;54.30;;;;;;5041153;28;20052;-60
2023/07/08 05:54:06;;;;;;;9.38;5.45;;;20.00;54.30;;;;;;5033815;28;20057;-59
2023/07/08 05:56:31;;;;;;;14.60;5.47;;;20.10;54.20;;;;;;5038774;28;20025;-59
2023/07/08 05:58:57;;;;;;;9.85;5.32;;;20.10;53.60;;;;;;5036916;28;20052;-59
2023/07/08 06:01:23;;;;;;;9.20;5.15;;;20.20;53.20;;;;;;5038730;28;20504;-59
2023/07/08 06:03:49;;;;;;;7.85;5.35;;;20.30;53.10;;;;;;5038625;28;20109;-58
2023/07/08 06:06:15;;;;;;;10.00;5.45;;;20.40;53.10;;;;;;5037875;28;20021;-60
2023/07/08 06:08:41;;;;;;;9.55;5.57;;;20.50;52.90;;;;;;5038351;28;20032;-57
2023/07/08 06:11:06;;;;;;;11.40;5.22;;;20.60;53.00;;;;;;5040429;28;20033;-58
2023/07/08 06:13:32;;;;;;;12.55;5.68;;;20.70;52.70;;;;;;5040732;28;20030;-59
2023/07/08 06:15:58;;;;;;;9.57;5.38;;;20.80;52.80;;;;;;5039619;28;20021;-59
2023/07/08 06:18:25;;;;;;;8.98;5.28;;;20.90;52.80;;;;;;5038251;28;20041;-57
2023/07/08 06:20:52;;;;;;;9.68;5.88;;;21.00;52.80;;;;;;5034477;28;20030;-60
2023/07/08 06:23:18;;;;;;;8.73;5.63;;;21.20;53.00;;;;;;5034425;28;20052;-58
2023/07/08 06:25:43;;;;;;;14.55;5.95;;;21.30;52.90;;;;;;5034847;28;20049;-59
2023/07/08 06:28:09;;;;;;;9.68;6.13;;;21.40;52.50;;;;;;5035449;28;20077;-59
2023/07/08 06:30:34;;;;;;;8.88;5.85;;;21.50;52.10;;;;;;5033713;28;20056;-59
2023/07/08 06:33:00;;;;;;;8.77;5.65;;;21.60;52.10;;;;;;5037824;28;20081;-59
2023/07/08 06:35:26;;;;;;;13.52;5.70;;;21.60;51.80;;;;;;5039581;28;20029;-59
2023/07/08 06:37:51;;;;;;;9.43;5.18;;;21.70;51.60;;;;;;5032358;28;20380;-59
2023/07/08 06:40:19;;;;;;;9.95;5.30;;;21.70;51.50;;;;;;5038208;28;20116;-59
2023/07/08 06:42:45;;;;;;;10.32;5.30;;;21.80;51.40;;;;;;5039100;28;20025;-60
2023/07/08 06:45:11;;;;;;;8.02;5.03;;;21.90;51.60;;;;;;5037256;28;20044;-57
2023/07/08 06:47:36;;;;;;;9.00;4.88;;;21.90;51.40;;;;;;5036289;28;20516;-58
2023/07/08 06:50:02;;;;;;;12.35;5.60;;;22.00;51.20;;;;;;5030889;28;20060;-58
2023/07/08 06:52:33;;;;;;;7.68;4.57;;;22.10;51.20;;;;;;5037256;28;20070;-58
2023/07/08 06:55:01;;;;;;;6.60;5.00;;;22.20;50.90;;;;;;5013169;28;20216;-59
2023/07/08 06:57:26;;;;;;;6.78;5.07;;;22.20;50.60;;;;;;5039516;28;20041;-59
2023/07/08 06:59:52;;;;;;;7.22;4.97;;;22.30;50.50;;;;;;5021279;28;20045;-59
2023/07/08 07:02:19;;;;;;;7.30;4.57;;;22.30;50.10;;;;;;5031503;28;20113;-59
2023/07/08 07:04:45;;;;;;;9.35;4.65;;;22.40;49.90;;;;;;5035890;28;20029;-59
2023/07/08 07:07:11;;;;;;;8.40;4.25;;;22.50;50.00;;;;;;5041749;28;20123;-58
2023/07/08 07:09:37;;;;;;;7.38;4.78;;;22.50;49.90;;;;;;5037140;28;20026;-58
2023/07/08 07:12:07;;;;;;;8.98;5.53;;;22.60;50.20;;;;;;5020181;28;20032;-58
2023/07/08 07:14:33;;;;;;;8.38;5.00;;;22.70;50.10;;;;;;5037658;28;20052;-59
2023/07/08 07:16:59;;;;;;;11.85;5.32;;;22.70;50.10;;;;;;5037628;28;20026;-59
2023/07/08 07:19:28;;;;;;;7.15;4.93;;;22.80;50.00;;;;;;5036273;28;20045;-59
2023/07/08 07:21:53;;;;;;;6.25;4.63;;;22.90;50.30;;;;;;5038386;28;20030;-58
2023/07/08 07:24:19;;;;;;;8.02;4.90;;;23.00;50.00;;;;;;5038738;28;20570;-59
2023/07/08 07:26:44;;;;;;;7.18;5.00;;;23.10;49.90;;;;;;5032618;28;20080;-59
2023/07/08 07:29:11;;;;;;;7.93;4.65;;;23.30;49.70;;;;;;5018367;28;20033;-59
2023/07/08 07:31:39;;;;;;;8.27;5.38;;;23.30;49.30;;;;;;5038139;28;20070;-59
2023/07/08 07:34:05;;;;;;;10.10;5.15;;;23.50;49.30;;;;;;5032585;28;20033;-59
2023/07/08 07:36:31;;;;;;;7.25;5.10;;;23.60;48.70;;;;;;5035861;28;20033;-58
2023/07/08 07:38:57;;;;;;;9.52;5.25;;;23.70;48.80;;;;;;5022006;28;20105;-59
2023/07/08 07:41:23;;;;;;;7.82;5.25;;;23.80;49.20;;;;;;5042943;28;20036;-59
2023/07/08 07:43:49;;;;;;;7.85;4.93;;;23.90;48.40;;;;;;5043932;28;20032;-60
2023/07/08 07:46:14;;;;;;;9.00;4.97;;;24.00;48.30;;;;;;5044193;28;20071;-59
2023/07/08 07:48:40;;;;;;;11.52;5.53;;;24.10;48.30;;;;;;5040059;28;20032;-59
2023/07/08 07:51:10;;;;;;;6.38;4.80;;;24.10;47.80;;;;;;5041344;28;20045;-60
2023/07/08 07:53:39;;;;;;;7.57;5.07;;;24.20;47.80;;;;;;5042056;28;20041;-60
2023/07/08 07:56:05;;;;;;;7.72;5.28;;;24.30;47.40;;;;;;5040883;28;20033;-60
2023/07/08 07:58:31;;;;;;;19.85;7.00;;;24.40;47.00;;;;;;5038090;28;20026;-60
2023/07/08 08:00:57;;;;;;;8.27;5.30;;;24.40;47.20;;;;;;5035503;28;20018;-59
2023/07/08 08:03:23;;;;;;;7.63;5.10;;;24.40;47.30;;;;;;5023289;28;20036;-60
2023/07/08 08:05:49;;;;;;;9.95;5.63;;;24.50;47.60;;;;;;5040215;28;20101;-60
2023/07/08 08:08:15;;;;;;;14.07;5.47;;;24.60;47.40;;;;;;5039441;28;20021;-57
2023/07/08 08:10:42;;;;;;;11.45;4.90;;;24.70;46.90;;;;;;5042919;28;20064;-60
2023/07/08 08:13:08;;;;;;;9.02;5.32;;;24.80;46.90;;;;;;5036765;28;20032;-59
2023/07/08 08:15:34;;;;;;;10.80;6.00;;;25.00;46.60;;;;;;5023864;28;20388;-60
2023/07/08 08:18:00;;;;;;;8.35;5.13;;;25.10;46.20;;;;;;5036186;28;20056;-59
2023/07/08 08:20:26;;;;;;;7.97;5.00;;;25.20;46.00;;;;;;5038281;28;20033;-60
2023/07/08 08:22:51;;;;;;;10.35;5.75;;;25.30;46.00;;;;;;5041237;28;20037;-59
2023/07/08 08:25:19;;;;;;;11.48;5.53;;;25.40;46.30;;;;;;5043983;28;20077;-60
2023/07/08 08:27:45;;;;;;;9.48;5.72;;;25.40;46.00;;;;;;5037750;28;20044;-58
2023/07/08 08:30:12;;;;;;;12.13;5.55;;;25.50;45.70;;;;;;5033834;28;20112;-60
2023/07/08 08:32:37;;;;;;;8.43;5.03;;;25.60;45.50;;;;;;5036080;28;20082;-58
2023/07/08 08:35:04;;;;;;;8.30;5.63;;;25.60;45.50;;;;;;5030063;28;20025;-60
2023/07/08 08:37:30;;;;;;;15.18;5.72;;;25.70;45.60;;;;;;5036895;28;20052;-60
2023/07/08 08:39:55;;;;;;;7.03;5.05;;;25.70;45.80;;;;;;5040843;28;20033;-58
2023/07/08 08:43:02;;;;;;;7.10;4.97;;;25.70;45.80;;;;;;5042466;28;20033;-60
2023/07/08 08:45:32;;;;;;;7.35;4.72;;;25.80;45.80;;;;;;4960860;29;20035;-59
2023/07/08 08:48:02;;;;;;;8.77;5.18;;;25.80;46.20;;;;;;4962304;28;20028;-58
2023/07/08 08:50:43;;;;;;;12.77;5.78;;;25.90;46.10;;;;;;4952682;29;20031;-58
2023/07/08 08:53:12;;;;;;;7.28;4.88;;;25.90;46.20;;;;;;4963040;28;20032;-58
2023/07/08 08:55:38;;;;;;;15.15;5.68;;;25.90;45.70;;;;;;4957930;29;20067;-59
2023/07/08 08:58:42;;;;;;;10.85;5.47;;;26.00;46.10;;;;;;4957798;29;20043;-59
2023/07/08 09:01:12;;;;;;;9.80;5.20;;;26.10;45.90;;;;;;4960813;28;20098;-59
2023/07/08 09:03:45;;;;;;;9.20;5.10;;;26.10;45.50;;;;;;4957787;28;20038;-60
2023/07/08 09:06:15;;;;;;;9.23;5.35;;;26.20;45.10;;;;;;4951465;29;20032;-58
2023/07/08 09:08:41;;;;;;;15.32;5.55;;;26.30;45.30;;;;;;4962295;29;20104;-60
2023/07/08 09:11:34;;;;;;;10.45;5.55;;;26.30;45.80;;;;;;4960999;29;20035;-59
2023/07/08 09:14:00;;;;;;;10.25;5.45;;;26.40;45.70;;;;;;4954194;28;20079;-59
2023/07/08 09:16:43;;;;;;;7.55;5.45;;;26.40;45.50;;;;;;4957631;29;20031;-59
2023/07/08 09:19:13;;;;;;;10.25;5.88;;;26.50;45.60;;;;;;4956179;28;20099;-59
2023/07/08 09:22:04;;;;;;;79.07;11.90;;;26.60;45.50;;;;;;5016954;28;20036;-58
2023/07/08 09:24:39;;;;;;;19.85;6.22;;;26.60;45.50;;;;;;5041162;28;20104;-61
2023/07/08 09:27:06;;;;;;;8.50;4.97;;;26.60;46.00;;;;;;5000657;28;20047;-58
2023/07/08 09:29:32;;;;;;;7.85;5.32;;;26.70;45.90;;;;;;5001500;28;20026;-59
2023/07/08 09:32:00;;;;;;;10.43;5.57;;;26.80;45.90;;;;;;4997838;28;20034;-59
2023/07/08 09:34:40;;;;;;;8.65;6.00;;;26.90;45.70;;;;;;4999196;28;20022;-59
2023/07/08 09:37:25;;;;;;;11.40;5.68;;;27.10;45.40;;;;;;5014947;28;20038;-59
2023/07/08 09:39:53;;;;;;;7.38;4.97;;;27.20;46.00;;;;;;4995773;28;20482;-59
2023/07/08 09:42:20;;;;;;;7.90;5.30;;;27.30;45.90;;;;;;5002052;28;20061;-59
2023/07/08 09:44:46;;;;;;;7.95;5.07;;;27.40;45.80;;;;;;4995961;28;20420;-59
2023/07/08 09:47:32;;;;;;;7.50;5.55;;;27.40;45.40;;;;;;4995741;28;20086;-58
2023/07/08 09:49:59;;;;;;;43.80;7.38;;;27.50;44.90;;;;;;4999415;28;20046;-59
2023/07/08 09:52:28;;;;;;;6.63;4.88;;;27.50;45.20;;;;;;4996288;28;20558;-58
2023/07/08 09:54:54;;;;;;;6.00;5.10;;;27.50;45.00;;;;;;5000693;28;20086;-58
2023/07/08 09:57:31;;;;;;;9.27;5.85;;;27.60;45.40;;;;;;4999215;28;20022;-58
2023/07/08 10:00:06;;;;;;;10.13;5.57;;;27.60;44.90;;;;;;4995910;28;20049;-60
2023/07/08 10:02:40;;;;;;;6.10;4.82;;;27.60;44.90;;;;;;5000842;28;20414;-59
2023/07/08 10:05:29;;;;;;;9.65;5.60;;;27.70;44.90;;;;;;4998345;28;20504;-59
2023/07/08 10:07:56;;;;;;;10.00;6.45;;;27.70;45.20;;;;;;5000247;28;20129;-58
2023/07/08 10:10:36;;;;;;;6.57;5.40;;;27.80;45.00;;;;;;4997930;28;20026;-59
2023/07/08 10:13:23;;;;;;;11.52;5.15;;;27.90;44.80;;;;;;5000470;28;20034;-58
2023/07/08 10:15:55;;;;;;;9.75;5.57;;;28.00;44.90;;;;;;4995100;28;20057;-59
2023/07/08 10:18:28;;;;;;;10.65;5.30;;;28.10;44.40;;;;;;4997489;28;20034;-59
2023/07/08 10:21:20;;;;;;;6.70;4.55;;;28.20;44.50;;;;;;4997333;28;20033;-60
2023/07/08 10:24:09;;;;;;;11.18;4.82;;;28.30;44.90;;;;;;4992718;28;20052;-59
2023/07/08 10:26:38;;;;;;;8.07;5.22;;;28.40;44.90;;;;;;5028942;28;20488;-59
2023/07/08 10:29:54;;;;;;;15.55;5.55;;;28.60;45.00;;;;;;5032343;28;20034;-59
2023/07/08 10:32:53;;;;;;;6.95;3.55;;;28.70;44.20;;;;;;4936004;29;20024;-60
2023/07/08 10:35:33;;;;;;;7.88;3.53;;;28.90;43.10;;;;;;4946885;29;20046;-58
2023/07/08 10:38:26;;;;;;;6.72;4.07;;;29.00;42.70;;;;;;4936839;29;20057;-59
2023/07/08 10:41:03;;;;;;;4.38;2.70;;;29.10;41.60;;;;;;4939259;29;20039;-59
2023/07/08 10:43:47;;;;;;;5.47;2.50;;;29.10;41.20;;;;;;4931779;29;20074;-60
2023/07/08 10:46:31;;;;;;;;;;;29.20;39.80;;;;;;4936973;29;20031;-61
2023/07/08 10:49:17;;;;;;;7.67;2.40;;;29.30;41.10;;;;;;4943291;29;19922;-60
2023/07/08 10:51:46;;;;;;;4.00;2.30;;;29.30;39.90;;;;;;4938070;29;20271;-60
2023/07/08 10:54:20;;;;;;;5.47;2.08;;;29.30;39.70;;;;;;4949027;29;20043;-59
2023/07/08 10:56:54;;;;;;;5.57;3.60;;;29.30;39.10;;;;;;4925966;29;20039;-61
2023/07/08 10:59:29;;;;;;;7.05;3.08;;;29.30;38.30;;;;;;4945040;29;20062;-59
2023/07/08 11:02:25;;;;;;;4.00;2.80;;;29.40;37.80;;;;;;4938971;28;20024;-60
2023/07/08 11:05:01;;;;;;;2.85;2.40;;;29.40;37.70;;;;;;5035023;28;20017;-59
2023/07/08 11:07:33;;;;;;;5.28;3.08;;;29.60;39.10;;;;;;5039628;28;20044;-60
2023/07/08 11:10:07;;;;;;;6.60;4.20;;;29.70;40.70;;;;;;5033547;28;20064;-59
2023/07/08 11:13:12;;;;;;;4.80;3.38;;;29.90;41.10;;;;;;5034427;28;20022;-60
2023/07/08 11:16:02;;;;;;;5.82;3.80;;;30.20;40.20;;;;;;5037175;28;20113;-60
2023/07/08 11:18:43;;;;;;;4.93;3.28;;;30.30;39.60;;;;;;5030959;28;20113;-61
2023/07/08 11:21:29;;;;;;;7.97;3.17;;;30.50;39.70;;;;;;5038066;28;20076;-60
2023/07/08 11:24:10;;;;;;;6.15;3.05;;;30.70;38.40;;;;;;5031498;28;20074;-59
2023/07/08 11:26:59;;;;;;;5.55;2.50;;;30.90;38.50;;;;;;5036510;28;20037;-60
2023/07/08 11:29:42;;;;;;;4.65;2.55;;;31.00;37.40;;;;;;5037665;28;20034;-60
2023/07/08 11:32:14;;;;;;;5.35;2.35;;;31.20;38.00;;;;;;5036879;28;20030;-60
2023/07/08 11:34:42;;;;;;;6.00;2.97;;;31.30;37.70;;;;;;5038532;28;20029;-60
2023/07/08 11:37:10;;;;;;;5.47;2.90;;;31.50;37.00;;;;;;5032720;28;20088;-59
2023/07/08 11:39:41;;;;;;;7.45;2.60;;;31.60;36.90;;;;;;5028986;28;20037;-58
2023/07/08 11:42:19;;;;;;;5.53;3.35;;;31.70;37.10;;;;;;5038921;28;20036;-60
2023/07/08 11:44:52;;;;;;;5.00;2.45;;;31.80;35.20;;;;;;5038846;28;20022;-59
2023/07/08 11:47:24;;;;;;;5.50;2.40;;;31.90;36.00;;;;;;5039853;28;20037;-60
2023/07/08 11:49:53;;;;;;;3.03;2.22;;;32.10;36.30;;;;;;5039532;28;20029;-58
2023/07/08 11:52:21;;;;;;;4.47;2.53;;;32.20;35.00;;;;;;5041649;28;20021;-60
2023/07/08 11:54:49;;;;;;;4.65;2.40;;;32.40;35.40;;;;;;5035798;28;20022;-60
2023/07/08 11:57:27;;;;;;;5.68;2.67;;;32.50;35.50;;;;;;5045906;28;20029;-60
2023/07/08 12:00:18;;;;;;;6.28;2.50;;;32.70;34.30;;;;;;5018790;28;20128;-62
2023/07/08 12:02:57;;;;;;;2.47;2.13;;;32.80;32.00;;;;;;5036385;28;20033;-60
2023/07/08 12:05:38;;;;;;;7.28;2.20;;;32.90;34.00;;;;;;5037141;28;20538;-58
2023/07/08 12:08:13;;;;;;;3.30;2.00;;;32.90;33.50;;;;;;5033511;28;20041;-61
2023/07/08 12:10:43;;;;;;;3.63;2.22;;;33.10;33.10;;;;;;5036200;28;20090;-60
2023/07/08 12:13:18;;;;;;;8.23;2.53;;;33.20;33.10;;;;;;5036287;28;20029;-61
2023/07/08 12:15:44;;;;;;;4.63;2.30;;;33.40;32.90;;;;;;5032332;28;20028;-60
2023/07/08 12:18:19;;;;;;;5.20;2.65;;;33.50;32.80;;;;;;5034479;28;20037;-58
2023/07/08 12:20:57;;;;;;;5.72;2.55;;;33.50;30.80;;;;;;5021988;28;20025;-60
2023/07/08 12:23:25;;;;;;;4.72;2.30;;;33.60;31.20;;;;;;5036192;28;20071;-59
2023/07/08 12:25:52;;;;;;;3.60;2.40;;;33.60;31.70;;;;;;5037589;28;20048;-60
2023/07/08 12:28:19;;;;;;;4.07;2.30;;;33.60;31.90;;;;;;5040135;28;20033;-61
2023/07/08 12:30:46;;;;;;;3.65;2.42;;;33.70;31.90;;;;;;5040681;28;20018;-60
2023/07/08 12:33:34;;;;;;;5.75;2.17;;;33.80;32.20;;;;;;5037754;28;20030;-60
2023/07/08 12:36:01;;;;;;;3.22;2.20;;;33.90;32.70;;;;;;5039048;28;20018;-60
2023/07/08 12:38:28;;;;;;;4.65;2.22;;;34.00;32.30;;;;;;5040662;28;20034;-60
2023/07/08 12:40:59;;;;;;;4.65;2.20;;;34.20;32.10;;;;;;5037784;28;20037;-60
2023/07/08 12:43:25;;;;;;;3.72;2.30;;;34.30;31.90;;;;;;5036650;28;20183;-61
2023/07/08 12:45:51;;;;;;;4.95;2.28;;;34.40;32.00;;;;;;5025927;28;20024;-60
2023/07/08 12:48:17;;;;;;;4.65;2.50;;;34.60;31.40;;;;;;5038702;28;20034;-60
2023/07/08 12:50:43;;;;;;;4.63;2.50;;;34.70;30.60;;;;;;5039230;28;20060;-60
2023/07/08 12:53:12;;;;;;;4.07;2.20;;;34.80;30.50;;;;;;5042185;28;20033;-60
2023/07/08 12:55:44;;;;;;;3.35;2.10;;;34.90;30.00;;;;;;5042343;28;20412;-60
2023/07/08 12:58:28;;;;;;;3.85;2.28;;;35.00;30.40;;;;;;5034431;28;20033;-60
2023/07/08 13:00:59;;;;;;;4.72;2.33;;;35.10;29.60;;;;;;5039342;28;20029;-60